Time;durP1;ratioP1;P1;durP2;ratioP2;P2;SDS_P1;SDS_P2;PMS_P1;PMS_P2;Temp;Humidity;BMP_temperature;BMP_pressure;BME280_temperature;BME280_humidity;BME280_pressure;Samples;Min_cycle;Max_cycle;Signal;HPM_P1;HPM_P2
2023/04/06 00:01:27;;;;;;;14.30;5.63;;;1.90;99.90;;;;;;5015721;28;20038;-65
2023/04/06 00:03:52;;;;;;;9.75;5.50;;;1.80;99.90;;;;;;5007740;28;20034;-65
2023/04/06 00:06:18;;;;;;;9.23;5.13;;;1.80;99.90;;;;;;5006567;28;20040;-65
2023/04/06 00:08:44;;;;;;;14.30;5.72;;;1.80;99.90;;;;;;5009338;28;20034;-66
2023/04/06 00:11:10;;;;;;;11.63;5.60;;;1.80;99.90;;;;;;5007347;28;20030;-66
2023/04/06 00:13:35;;;;;;;9.13;4.88;;;1.80;99.90;;;;;;5009627;28;20034;-66
2023/04/06 00:16:01;;;;;;;11.32;5.22;;;1.80;99.90;;;;;;5011641;28;20049;-65
2023/04/06 00:18:27;;;;;;;11.05;5.45;;;1.70;99.90;;;;;;5006615;28;20038;-65
2023/04/06 00:20:53;;;;;;;8.63;4.70;;;1.70;99.90;;;;;;4979646;28;20046;-66
2023/04/06 00:23:18;;;;;;;9.10;5.05;;;1.70;99.90;;;;;;5004058;28;20039;-65
2023/04/06 00:25:44;;;;;;;11.32;5.72;;;1.80;99.90;;;;;;5009442;28;20109;-66
2023/04/06 00:28:10;;;;;;;11.85;5.38;;;1.80;99.90;;;;;;5010409;28;20471;-66
2023/04/06 00:30:35;;;;;;;10.65;5.07;;;1.80;99.90;;;;;;5005422;28;20030;-65
2023/04/06 00:33:01;;;;;;;22.15;5.95;;;1.80;99.90;;;;;;5001549;28;20125;-66
2023/04/06 00:35:27;;;;;;;8.82;4.95;;;1.80;99.90;;;;;;5007445;28;20080;-67
2023/04/06 00:37:52;;;;;;;11.93;5.65;;;1.70;99.90;;;;;;5007890;28;20044;-66
2023/04/06 00:40:18;;;;;;;12.65;4.95;;;1.70;99.90;;;;;;5013852;28;20053;-67
2023/04/06 00:42:44;;;;;;;12.85;4.85;;;1.70;99.90;;;;;;5009259;28;20029;-66
2023/04/06 00:45:10;;;;;;;8.73;4.68;;;1.70;99.90;;;;;;5008318;28;20048;-66
2023/04/06 00:47:35;;;;;;;8.88;5.13;;;1.70;99.90;;;;;;5010389;28;20030;-66
2023/04/06 00:50:01;;;;;;;10.50;5.18;;;1.80;99.90;;;;;;5009623;28;20034;-66
2023/04/06 00:52:27;;;;;;;12.98;5.82;;;1.80;99.90;;;;;;5008369;28;20072;-66
2023/04/06 00:54:53;;;;;;;10.68;5.00;;;1.70;99.90;;;;;;5008812;28;20022;-66
2023/04/06 00:57:19;;;;;;;11.20;6.05;;;1.70;99.90;;;;;;5010298;28;20554;-66
2023/04/06 00:59:45;;;;;;;8.70;4.47;;;1.70;99.90;;;;;;5018166;28;20017;-66
2023/04/06 01:02:11;;;;;;;9.13;5.47;;;1.70;99.90;;;;;;5008033;28;20571;-67
2023/04/06 01:04:36;;;;;;;12.13;5.18;;;1.60;99.90;;;;;;5009592;28;20034;-66
2023/04/06 01:07:02;;;;;;;11.60;6.00;;;1.60;99.90;;;;;;5009409;28;20098;-66
2023/04/06 01:09:31;;;;;;;11.02;5.20;;;1.60;99.90;;;;;;5013551;28;20128;-66
2023/04/06 01:11:57;;;;;;;12.10;5.75;;;1.50;99.90;;;;;;5010807;28;20101;-66
2023/04/06 01:14:24;;;;;;;9.57;5.63;;;1.50;99.90;;;;;;5014346;28;20101;-66
2023/04/06 01:16:52;;;;;;;12.45;6.43;;;1.40;99.90;;;;;;5010264;28;20029;-66
2023/04/06 01:19:18;;;;;;;13.07;5.68;;;1.40;99.90;;;;;;5006662;28;20053;-65
2023/04/06 01:21:43;;;;;;;11.52;5.63;;;1.40;99.90;;;;;;4984733;28;20042;-66
2023/04/06 01:24:09;;;;;;;11.82;5.90;;;1.40;99.90;;;;;;5014329;28;20037;-66
2023/04/06 01:26:36;;;;;;;11.73;5.95;;;1.40;99.90;;;;;;5012029;28;20030;-66
2023/04/06 01:29:03;;;;;;;11.80;6.65;;;1.30;99.90;;;;;;5012368;28;20053;-66
2023/04/06 01:31:28;;;;;;;11.10;5.25;;;1.30;99.90;;;;;;5014020;28;20026;-67
2023/04/06 01:33:54;;;;;;;10.52;5.57;;;1.40;99.90;;;;;;5019638;28;20507;-66
2023/04/06 01:36:20;;;;;;;9.68;5.60;;;1.30;99.90;;;;;;5015784;28;20022;-66
2023/04/06 01:38:46;;;;;;;11.35;5.57;;;1.20;99.90;;;;;;5012034;28;20022;-66
2023/04/06 01:41:11;;;;;;;9.98;5.28;;;1.20;99.90;;;;;;5011604;28;20046;-66
2023/04/06 01:43:37;;;;;;;10.30;4.90;;;1.20;99.90;;;;;;5013602;28;20072;-67
2023/04/06 01:46:03;;;;;;;13.35;5.43;;;1.30;99.90;;;;;;5012471;28;20026;-66
2023/04/06 01:48:29;;;;;;;15.88;5.95;;;1.30;99.90;;;;;;5014208;28;20025;-66
2023/04/06 01:50:55;;;;;;;9.82;5.20;;;1.30;99.90;;;;;;5011097;28;20044;-66
2023/04/06 01:53:21;;;;;;;11.23;5.13;;;1.30;99.90;;;;;;5007784;28;20033;-66
2023/04/06 01:55:47;;;;;;;10.43;5.38;;;1.30;99.90;;;;;;5009563;28;20399;-67
2023/04/06 01:58:13;;;;;;;13.25;5.15;;;1.30;99.90;;;;;;5011796;28;20021;-66
2023/04/06 02:00:39;;;;;;;11.43;5.35;;;1.20;99.90;;;;;;5012943;28;20049;-66
2023/04/06 02:03:05;;;;;;;11.85;5.70;;;1.20;99.90;;;;;;5016033;28;20037;-66
2023/04/06 02:05:37;;;;;;;10.57;5.85;;;1.20;99.90;;;;;;5006264;28;20034;-66
2023/04/06 02:08:05;;;;;;;12.83;5.83;;;1.10;99.90;;;;;;5009495;28;20036;-66
2023/04/06 02:10:31;;;;;;;11.15;5.50;;;1.00;99.90;;;;;;5018819;28;20022;-66
2023/04/06 02:12:56;;;;;;;13.20;5.90;;;1.00;99.90;;;;;;5010746;28;20030;-65
2023/04/06 02:15:22;;;;;;;16.95;6.38;;;1.00;99.90;;;;;;5004641;28;20487;-66
2023/04/06 02:17:48;;;;;;;13.52;5.85;;;1.00;99.90;;;;;;5005183;28;20018;-67
2023/04/06 02:20:13;;;;;;;15.80;5.63;;;1.00;99.90;;;;;;5003971;28;20030;-66
2023/04/06 02:22:39;;;;;;;12.75;5.28;;;1.00;99.90;;;;;;4983162;28;20052;-66
2023/04/06 02:25:05;;;;;;;11.68;5.70;;;1.00;99.90;;;;;;5007534;28;20033;-66
2023/04/06 02:27:31;;;;;;;11.77;5.47;;;1.10;99.90;;;;;;5010575;28;20582;-67
2023/04/06 02:29:57;;;;;;;16.00;4.88;;;1.00;99.90;;;;;;5016210;28;20030;-66
2023/04/06 02:32:22;;;;;;;13.82;5.15;;;1.00;99.90;;;;;;5000778;28;20026;-66
2023/04/06 02:34:48;;;;;;;16.98;6.32;;;1.00;99.90;;;;;;5005060;28;20095;-67
2023/04/06 02:37:13;;;;;;;13.52;6.50;;;0.90;99.90;;;;;;5011755;28;20025;-66
2023/04/06 02:39:39;;;;;;;14.33;5.83;;;0.90;99.90;;;;;;5008429;28;20025;-66
2023/04/06 02:42:05;;;;;;;9.80;5.83;;;0.80;99.90;;;;;;5000741;28;20018;-67
2023/04/06 02:44:30;;;;;;;11.37;6.13;;;0.70;99.90;;;;;;5008313;28;20032;-67
2023/04/06 02:46:56;;;;;;;12.70;5.70;;;0.70;99.90;;;;;;5008957;28;20040;-66
2023/04/06 02:49:22;;;;;;;14.67;5.80;;;0.60;99.90;;;;;;5001095;28;20030;-67
2023/04/06 02:51:47;;;;;;;10.50;5.90;;;0.50;99.90;;;;;;5010152;28;20407;-66
2023/04/06 02:54:13;;;;;;;16.30;6.63;;;0.50;99.90;;;;;;5004549;28;20033;-66
2023/04/06 02:56:39;;;;;;;11.70;6.07;;;0.50;99.90;;;;;;5009067;28;20022;-66
2023/04/06 02:59:05;;;;;;;13.93;5.97;;;0.50;99.90;;;;;;5013560;28;20125;-66
2023/04/06 03:01:30;;;;;;;12.07;5.80;;;0.50;99.90;;;;;;5013959;28;20022;-66
2023/04/06 03:03:56;;;;;;;14.37;6.33;;;0.50;99.90;;;;;;5009532;28;20040;-66
2023/04/06 03:06:22;;;;;;;16.20;6.90;;;0.50;99.90;;;;;;5011647;28;20034;-66
2023/04/06 03:08:47;;;;;;;11.63;6.17;;;0.40;99.90;;;;;;5018245;28;20029;-67
2023/04/06 03:11:13;;;;;;;10.90;6.13;;;0.40;99.90;;;;;;5004790;28;20404;-67
2023/04/06 03:13:39;;;;;;;17.20;6.50;;;0.40;99.90;;;;;;5016424;28;20025;-66
2023/04/06 03:16:05;;;;;;;12.27;6.83;;;0.30;99.90;;;;;;5009811;28;20369;-67
2023/04/06 03:18:31;;;;;;;15.00;5.63;;;0.30;99.90;;;;;;5008399;28;20109;-66
2023/04/06 03:20:57;;;;;;;15.67;6.87;;;0.30;99.90;;;;;;5007800;28;20076;-67
2023/04/06 03:23:23;;;;;;;12.33;5.30;;;0.30;99.90;;;;;;4983709;28;20053;-66
2023/04/06 03:25:49;;;;;;;11.80;5.83;;;0.30;99.90;;;;;;5010184;28;20101;-66
2023/04/06 03:28:15;;;;;;;11.33;5.77;;;0.30;99.90;;;;;;5015534;28;20105;-66
2023/04/06 03:30:41;;;;;;;12.53;6.47;;;0.40;99.90;;;;;;5008749;28;20029;-65
2023/04/06 03:33:07;;;;;;;8.73;5.37;;;0.40;99.90;;;;;;5014069;28;20025;-66
2023/04/06 03:35:32;;;;;;;11.63;4.70;;;0.40;99.90;;;;;;5008777;28;20030;-66
2023/04/06 03:37:58;;;;;;;10.87;5.40;;;0.30;99.90;;;;;;5012881;28;20025;-66
2023/04/06 03:40:24;;;;;;;11.20;6.13;;;0.30;99.90;;;;;;5010146;28;20030;-66
2023/04/06 03:42:50;;;;;;;13.53;5.40;;;0.30;99.90;;;;;;5007428;28;20056;-66
2023/04/06 03:45:16;;;;;;;8.20;5.20;;;0.20;99.90;;;;;;5008622;28;20079;-66
2023/04/06 03:47:41;;;;;;;11.13;6.13;;;0.30;99.90;;;;;;5010253;28;20057;-66
2023/04/06 03:50:07;;;;;;;15.27;6.50;;;0.20;99.90;;;;;;5005321;28;20164;-66
2023/04/06 03:52:34;;;;;;;11.13;6.13;;;0.20;99.90;;;;;;5008909;28;20116;-66
2023/04/06 03:55:00;;;;;;;19.03;6.53;;;0.20;99.90;;;;;;5010655;28;20079;-67
2023/04/06 03:57:25;;;;;;;16.33;5.80;;;0.20;99.90;;;;;;5000594;28;20030;-67
2023/04/06 03:59:51;;;;;;;11.87;6.13;;;0.10;99.90;;;;;;5003930;28;20045;-67
2023/04/06 04:02:16;;;;;;;10.43;5.33;;;0.10;99.90;;;;;;5002328;28;20034;-67
2023/04/06 04:04:42;;;;;;;11.20;5.47;;;0.10;99.90;;;;;;5000368;28;20040;-66
2023/04/06 04:07:08;;;;;;;12.63;6.43;;;0.10;99.90;;;;;;5006076;28;20483;-66
2023/04/06 04:09:33;;;;;;;10.97;5.30;;;0.20;99.90;;;;;;5012367;28;20097;-66
2023/04/06 04:11:59;;;;;;;10.27;5.23;;;0.20;99.90;;;;;;5006845;28;20057;-67
2023/04/06 04:14:25;;;;;;;11.80;6.10;;;0.20;99.90;;;;;;5019764;28;20041;-66
2023/04/06 04:16:51;;;;;;;12.63;6.57;;;0.20;99.90;;;;;;5005658;28;20034;-66
2023/04/06 04:19:16;;;;;;;10.77;5.70;;;0.10;99.90;;;;;;5004707;28;20033;-66
2023/04/06 04:21:46;;;;;;;14.07;5.33;;;0.10;99.90;;;;;;4988209;28;20041;-66
2023/04/06 04:24:12;;;;;;;7.33;4.50;;;0.10;99.90;;;;;;5011135;28;20084;-66
2023/04/06 04:26:39;;;;;;;12.40;5.40;;;0.20;99.90;;;;;;5007077;28;20034;-67
2023/04/06 04:29:05;;;;;;;12.70;5.50;;;0.20;99.90;;;;;;5013401;28;20029;-66
2023/04/06 04:31:30;;;;;;;11.37;6.67;;;0.20;99.90;;;;;;5007462;28;20022;-66
2023/04/06 04:33:57;;;;;;;12.47;5.77;;;0.30;99.90;;;;;;5008745;28;20041;-66
2023/04/06 04:36:24;;;;;;;10.93;5.70;;;0.30;99.90;;;;;;5005692;28;20026;-66
2023/04/06 04:38:50;;;;;;;15.03;6.73;;;0.20;99.90;;;;;;5008228;28;20018;-67
2023/04/06 04:41:15;;;;;;;11.33;6.23;;;0.20;99.90;;;;;;5015290;28;20026;-67
2023/04/06 04:43:41;;;;;;;13.17;6.70;;;0.10;99.90;;;;;;5008841;28;20717;-67
2023/04/06 04:46:06;;;;;;;17.10;6.37;;;0.10;99.90;;;;;;5001832;28;20033;-67
2023/04/06 04:48:32;;;;;;;14.03;7.00;;;0.20;99.90;;;;;;5003465;28;20500;-66
2023/04/06 04:50:58;;;;;;;11.50;5.83;;;0.20;99.90;;;;;;5005705;28;20523;-67
2023/04/06 04:53:23;;;;;;;9.37;5.43;;;0.20;99.90;;;;;;5012328;28;20106;-66
2023/04/06 04:55:49;;;;;;;11.37;5.70;;;0.30;99.90;;;;;;5007611;28;20120;-66
2023/04/06 04:58:16;;;;;;;10.50;5.93;;;0.40;99.90;;;;;;5005218;28;20022;-66
2023/04/06 05:00:42;;;;;;;10.93;6.03;;;0.40;99.90;;;;;;5007938;28;20022;-66
2023/04/06 05:03:09;;;;;;;11.97;5.80;;;0.40;99.90;;;;;;5009026;28;20506;-66
2023/04/06 05:05:35;;;;;;;12.30;5.40;;;0.40;99.90;;;;;;5008721;28;20113;-67
2023/04/06 05:08:01;;;;;;;10.07;5.50;;;0.40;99.90;;;;;;5025798;28;20116;-66
2023/04/06 05:10:27;;;;;;;12.73;6.13;;;0.40;99.90;;;;;;5012552;28;20028;-66
2023/04/06 05:12:52;;;;;;;10.20;5.37;;;0.40;99.90;;;;;;5010945;28;20034;-67
2023/04/06 05:15:18;;;;;;;9.20;5.17;;;0.40;99.90;;;;;;5015180;28;20032;-66
2023/04/06 05:17:44;;;;;;;11.87;5.40;;;0.50;99.90;;;;;;5026958;28;20049;-66
2023/04/06 05:20:10;;;;;;;10.17;5.47;;;0.60;99.90;;;;;;5016639;28;20052;-65
2023/04/06 05:22:35;;;;;;;9.47;4.73;;;0.70;99.90;;;;;;4988588;28;20072;-66
2023/04/06 05:25:02;;;;;;;12.00;5.33;;;0.80;99.90;;;;;;5010622;28;20456;-66
2023/04/06 05:27:28;;;;;;;8.60;4.70;;;1.00;99.90;;;;;;5010338;28;20403;-66
2023/04/06 05:29:54;;;;;;;9.85;4.88;;;1.00;99.90;;;;;;5011421;28;20030;-65
2023/04/06 05:32:21;;;;;;;8.38;4.35;;;1.20;99.90;;;;;;5007054;28;20026;-66
2023/04/06 05:34:49;;;;;;;7.57;4.97;;;1.30;99.90;;;;;;5009273;28;20118;-66
2023/04/06 05:37:14;;;;;;;15.43;5.50;;;1.40;99.90;;;;;;5017055;28;20025;-65
2023/04/06 05:39:40;;;;;;;9.93;4.72;;;1.50;99.90;;;;;;5013508;28;20393;-66
2023/04/06 05:42:06;;;;;;;9.63;4.50;;;1.60;99.90;;;;;;5024620;28;20024;-66
2023/04/06 05:44:32;;;;;;;9.02;4.63;;;1.90;99.90;;;;;;5013430;28;20022;-65
2023/04/06 05:46:58;;;;;;;10.57;4.78;;;2.10;99.90;;;;;;5001832;28;20029;-65
2023/04/06 05:49:23;;;;;;;8.07;4.57;;;2.30;99.90;;;;;;5011049;28;20065;-66
2023/04/06 05:51:49;;;;;;;10.68;4.65;;;2.60;99.90;;;;;;5011482;28;20108;-65
2023/04/06 05:54:14;;;;;;;7.43;4.00;;;2.90;99.90;;;;;;5010348;28;20022;-66
2023/04/06 05:56:40;;;;;;;7.60;4.60;;;3.20;99.90;;;;;;5014653;28;20037;-64
2023/04/06 05:59:06;;;;;;;7.78;4.15;;;3.50;99.90;;;;;;5009003;28;20022;-66
2023/04/06 06:01:33;;;;;;;10.25;4.68;;;3.80;99.90;;;;;;5017836;28;20019;-67
2023/04/06 06:04:01;;;;;;;7.10;4.13;;;4.10;99.60;;;;;;5027021;28;20112;-66
2023/04/06 06:06:29;;;;;;;6.93;3.80;;;4.50;98.90;;;;;;5012450;28;20026;-66
2023/04/06 06:08:58;;;;;;;8.50;3.95;;;4.70;98.30;;;;;;5011684;28;20113;-66
2023/04/06 06:11:24;;;;;;;6.38;4.03;;;5.10;96.60;;;;;;5012630;28;20022;-66
2023/04/06 06:13:50;;;;;;;11.68;3.90;;;5.50;97.60;;;;;;5016163;28;20025;-66
2023/04/06 06:16:17;;;;;;;11.48;4.47;;;6.10;96.10;;;;;;5013230;28;20084;-66
2023/04/06 06:18:43;;;;;;;5.00;3.35;;;7.10;94.80;;;;;;5012318;28;20037;-66
2023/04/06 06:21:09;;;;;;;7.03;4.07;;;7.50;93.60;;;;;;5009499;28;20030;-66
2023/04/06 06:23:34;;;;;;;8.82;4.15;;;7.90;92.30;;;;;;4997231;28;20048;-66
2023/04/06 06:26:01;;;;;;;8.38;4.38;;;7.60;92.50;;;;;;5022673;28;20025;-65
2023/04/06 06:28:26;;;;;;;8.65;4.13;;;7.80;91.80;;;;;;5023174;28;20033;-67
2023/04/06 06:30:52;;;;;;;7.13;4.50;;;7.70;91.00;;;;;;5018015;28;20018;-66
2023/04/06 06:33:18;;;;;;;10.93;3.80;;;8.00;92.00;;;;;;5032460;28;20025;-67
2023/04/06 06:35:43;;;;;;;6.55;3.72;;;8.60;90.70;;;;;;5012718;28;20045;-66
2023/04/06 06:38:09;;;;;;;10.77;4.72;;;9.10;88.80;;;;;;5011703;28;20049;-67
2023/04/06 06:40:35;;;;;;;6.57;3.97;;;9.10;87.60;;;;;;5013442;28;20032;-66
2023/04/06 06:43:00;;;;;;;11.15;4.47;;;8.80;88.70;;;;;;5011691;28;20056;-66
2023/04/06 06:45:26;;;;;;;8.80;3.92;;;8.70;87.10;;;;;;5018673;28;20381;-67
2023/04/06 06:47:51;;;;;;;7.15;3.38;;;9.00;89.40;;;;;;5015481;28;20764;-67
2023/04/06 06:50:17;;;;;;;7.97;4.93;;;9.50;88.90;;;;;;5020109;28;20030;-67
2023/04/06 06:52:43;;;;;;;8.15;4.25;;;9.30;87.90;;;;;;5024910;28;20040;-67
2023/04/06 06:55:10;;;;;;;8.38;5.10;;;9.60;87.50;;;;;;5010557;28;20500;-67
2023/04/06 06:57:36;;;;;;;7.82;4.32;;;10.70;85.50;;;;;;5015631;28;20029;-67
2023/04/06 07:00:02;;;;;;;6.35;3.83;;;11.50;83.10;;;;;;5015870;28;20033;-67
2023/04/06 07:02:28;;;;;;;7.07;4.30;;;12.60;81.40;;;;;;5015893;28;20022;-67
2023/04/06 07:04:53;;;;;;;11.15;4.85;;;13.50;79.30;;;;;;5016409;28;20034;-68
2023/04/06 07:07:19;;;;;;;8.73;4.88;;;13.80;76.80;;;;;;5006455;28;20029;-67
2023/04/06 07:09:45;;;;;;;8.38;5.07;;;14.20;74.40;;;;;;5016975;28;20041;-67
2023/04/06 07:12:11;;;;;;;6.43;4.10;;;13.60;74.00;;;;;;5010491;28;20029;-67
2023/04/06 07:14:37;;;;;;;8.30;4.45;;;14.50;73.10;;;;;;5008812;28;20034;-66
2023/04/06 07:17:02;;;;;;;7.13;4.20;;;14.20;72.70;;;;;;5014307;28;20549;-66
2023/04/06 07:19:28;;;;;;;6.95;4.03;;;14.60;72.00;;;;;;5015918;28;20052;-67
2023/04/06 07:21:54;;;;;;;11.60;4.20;;;15.30;71.70;;;;;;5008928;28;20030;-67
2023/04/06 07:24:19;;;;;;;8.27;4.43;;;14.60;71.20;;;;;;4982906;28;20050;-67
2023/04/06 07:26:45;;;;;;;7.35;4.57;;;15.50;71.80;;;;;;5020498;28;20025;-67
2023/04/06 07:29:12;;;;;;;7.68;4.22;;;15.60;71.00;;;;;;5011217;28;20113;-67
2023/04/06 07:31:38;;;;;;;9.40;4.85;;;15.90;70.50;;;;;;5007987;28;20034;-67
2023/04/06 07:34:03;;;;;;;8.18;4.75;;;16.30;69.20;;;;;;5010300;28;21923;-67
2023/04/06 07:36:29;;;;;;;9.82;4.63;;;17.00;68.70;;;;;;5010570;28;20078;-67
2023/04/06 07:38:55;;;;;;;8.45;4.97;;;17.70;67.30;;;;;;5014848;28;20586;-67
2023/04/06 07:41:20;;;;;;;10.18;4.82;;;18.00;65.80;;;;;;5014934;28;20439;-67
2023/04/06 07:43:46;;;;;;;7.78;4.55;;;18.90;64.10;;;;;;5009941;28;20058;-67
2023/04/06 07:46:11;;;;;;;9.82;4.78;;;17.60;64.60;;;;;;5008628;28;20157;-67
2023/04/06 07:48:37;;;;;;;8.18;5.05;;;17.90;64.10;;;;;;5028454;28;20037;-67
2023/04/06 07:51:04;;;;;;;7.72;4.90;;;17.70;62.70;;;;;;5016236;28;20030;-67
2023/04/06 07:53:30;;;;;;;8.63;4.07;;;16.70;64.00;;;;;;5011563;28;20037;-67
2023/04/06 07:55:58;;;;;;;11.20;5.00;;;17.30;64.50;;;;;;5010588;28;20022;-67
2023/04/06 07:58:23;;;;;;;8.65;4.97;;;17.20;64.30;;;;;;5008529;28;20075;-67
2023/04/06 08:00:49;;;;;;;8.27;5.03;;;17.20;64.20;;;;;;5006336;28;20034;-67
2023/04/06 08:03:16;;;;;;;10.93;4.82;;;17.30;64.50;;;;;;5005671;28;20109;-68
2023/04/06 08:05:42;;;;;;;7.50;4.68;;;17.40;65.10;;;;;;5006489;28;20045;-67
2023/04/06 08:08:08;;;;;;;9.52;4.93;;;17.10;65.50;;;;;;5017322;28;20026;-67
2023/04/06 08:10:34;;;;;;;8.68;5.05;;;17.50;64.80;;;;;;5008633;28;20037;-67
2023/04/06 08:13:00;;;;;;;9.77;5.80;;;17.80;63.90;;;;;;5009464;28;20145;-67
2023/04/06 08:15:26;;;;;;;8.48;5.25;;;18.60;63.10;;;;;;5006982;28;20033;-67
2023/04/06 08:17:52;;;;;;;10.80;6.00;;;18.00;63.50;;;;;;5017496;28;20064;-67
2023/04/06 08:20:17;;;;;;;11.25;5.90;;;18.40;61.60;;;;;;5006655;28;20172;-67
2023/04/06 08:22:43;;;;;;;9.23;5.10;;;18.50;63.20;;;;;;5024902;28;20490;-67
2023/04/06 08:25:09;;;;;;;7.53;4.82;;;18.80;62.40;;;;;;4983143;28;20402;-67
2023/04/06 08:27:34;;;;;;;11.93;5.65;;;18.50;63.60;;;;;;5009535;28;20555;-67
2023/04/06 08:30:00;;;;;;;11.40;6.05;;;19.00;63.10;;;;;;5006440;28;20046;-67
2023/04/06 08:32:25;;;;;;;12.80;5.57;;;20.00;62.30;;;;;;5008955;28;20034;-67
2023/04/06 08:34:54;;;;;;;9.98;5.68;;;19.80;62.10;;;;;;5015564;28;20033;-67
2023/04/06 08:37:21;;;;;;;10.85;6.07;;;19.30;60.30;;;;;;5007737;28;20037;-67
2023/04/06 08:39:46;;;;;;;9.32;5.70;;;19.00;60.60;;;;;;5013115;28;20038;-67
2023/04/06 08:42:24;;;;;;;12.23;6.10;;;17.90;62.20;;;;;;5012059;28;20396;-67
2023/04/06 08:44:52;;;;;;;13.35;5.95;;;17.30;64.00;;;;;;5004858;28;20033;-67
2023/04/06 08:47:18;;;;;;;10.23;6.22;;;16.00;65.60;;;;;;5032592;28;20107;-67
2023/04/06 08:49:45;;;;;;;11.57;6.75;;;15.30;66.50;;;;;;5010608;28;20034;-67
2023/04/06 08:52:11;;;;;;;16.58;6.65;;;14.70;68.80;;;;;;5021295;28;20034;-67
2023/04/06 08:54:38;;;;;;;11.32;6.95;;;14.50;68.50;;;;;;5014833;28;20041;-67
2023/04/06 08:57:05;;;;;;;16.13;6.32;;;14.70;69.10;;;;;;5022142;28;20647;-67
2023/04/06 08:59:31;;;;;;;11.40;6.38;;;14.80;71.30;;;;;;5017526;28;20079;-67
2023/04/06 09:01:59;;;;;;;9.50;6.28;;;15.80;69.90;;;;;;5017760;28;20380;-67
2023/04/06 09:04:26;;;;;;;10.05;6.43;;;16.60;68.40;;;;;;5009328;28;20041;-67
2023/04/06 09:06:52;;;;;;;10.27;6.60;;;17.00;66.40;;;;;;5022977;28;20108;-67
2023/04/06 09:09:17;;;;;;;14.85;6.95;;;17.80;65.60;;;;;;5012280;28;20034;-67
2023/04/06 09:11:48;;;;;;;12.05;7.65;;;17.40;65.40;;;;;;5015910;28;20418;-66
2023/04/06 09:14:15;;;;;;;11.18;6.50;;;17.00;64.50;;;;;;5007073;28;20026;-66
2023/04/06 09:16:45;;;;;;;15.40;7.07;;;17.10;64.10;;;;;;5022638;28;20405;-67
2023/04/06 09:19:12;;;;;;;13.07;7.15;;;16.10;66.40;;;;;;5010044;28;20125;-67
2023/04/06 09:21:39;;;;;;;15.10;7.10;;;15.70;67.10;;;;;;5011866;28;20029;-66
2023/04/06 09:24:06;;;;;;;13.57;7.35;;;15.90;69.00;;;;;;4983932;28;20511;-67
2023/04/06 09:26:33;;;;;;;14.82;7.72;;;16.30;68.40;;;;;;5015216;28;20369;-67
2023/04/06 09:29:01;;;;;;;12.88;6.80;;;16.30;67.50;;;;;;5012312;28;20518;-67
2023/04/06 09:31:29;;;;;;;12.23;7.38;;;16.90;66.70;;;;;;5009347;28;20045;-65
2023/04/06 09:33:56;;;;;;;11.43;7.00;;;17.40;66.10;;;;;;5009658;28;20030;-66
2023/04/06 09:36:33;;;;;;;12.90;7.30;;;16.30;66.40;;;;;;5008129;28;20034;-67
2023/04/06 09:39:00;;;;;;;11.75;6.80;;;16.20;69.20;;;;;;5004312;28;20438;-65
2023/04/06 09:41:27;;;;;;;13.85;7.20;;;16.50;67.80;;;;;;5011892;28;20518;-67
2023/04/06 09:44:03;;;;;;;13.32;7.50;;;16.50;69.30;;;;;;5017234;28;20041;-67
2023/04/06 09:46:38;;;;;;;13.52;7.88;;;16.20;69.10;;;;;;5009873;28;20034;-66
2023/04/06 09:49:05;;;;;;;12.52;6.93;;;16.20;68.60;;;;;;5009539;28;20017;-67
2023/04/06 09:51:47;;;;;;;15.82;6.82;;;16.10;69.20;;;;;;5007453;28;20034;-66
2023/04/06 09:54:18;;;;;;;14.32;7.00;;;15.70;70.10;;;;;;5013065;28;20053;-67
2023/04/06 09:56:50;;;;;;;17.63;7.22;;;15.60;70.90;;;;;;5010768;28;20029;-67
2023/04/06 09:59:30;;;;;;;12.60;6.97;;;16.00;70.10;;;;;;5007625;28;20088;-66
2023/04/06 10:01:59;;;;;;;13.68;7.40;;;16.40;70.40;;;;;;5012677;28;20013;-67
2023/04/06 10:04:44;;;;;;;13.75;7.82;;;16.40;68.30;;;;;;5006658;28;20463;-67
2023/04/06 10:07:11;;;;;;;14.05;7.43;;;16.90;69.30;;;;;;5015408;28;20024;-67
2023/04/06 10:09:38;;;;;;;17.35;8.07;;;17.20;70.20;;;;;;5023663;28;20542;-67
2023/04/06 10:12:06;;;;;;;15.38;8.50;;;17.30;69.50;;;;;;5014628;28;20042;-67
2023/04/06 10:14:38;;;;;;;21.83;12.20;;;17.30;67.40;;;;;;5003456;28;20081;-66
2023/04/06 10:17:04;;;;;;;24.02;10.57;;;17.50;69.30;;;;;;5007691;28;20046;-67
2023/04/06 10:19:49;;;;;;;15.50;7.88;;;16.90;68.10;;;;;;5006837;28;20034;-66
2023/04/06 10:22:24;;;;;;;17.42;7.70;;;16.60;68.50;;;;;;5018840;28;20069;-67
2023/04/06 10:24:49;;;;;;;15.38;7.93;;;16.90;70.00;;;;;;4988118;28;20029;-66
2023/04/06 10:27:15;;;;;;;14.65;8.60;;;17.40;69.80;;;;;;5024248;28;20502;-66
2023/04/06 10:29:43;;;;;;;22.48;9.15;;;17.40;66.80;;;;;;5013787;28;20028;-67
2023/04/06 10:32:09;;;;;;;13.98;8.00;;;17.40;68.40;;;;;;5004930;28;20029;-67
2023/04/06 10:34:35;;;;;;;17.90;7.90;;;17.20;67.00;;;;;;5003798;28;20034;-67
2023/04/06 10:37:14;;;;;;;15.52;8.15;;;17.20;66.80;;;;;;5008808;28;20022;-67
2023/04/06 10:39:47;;;;;;;12.07;7.25;;;17.00;68.00;;;;;;5011417;28;20045;-67
2023/04/06 10:42:14;;;;;;;13.02;6.75;;;16.90;67.70;;;;;;5009081;28;20121;-67
2023/04/06 10:44:44;;;;;;;25.20;11.13;;;17.30;67.70;;;;;;5008327;28;20029;-66
2023/04/06 10:47:17;;;;;;;57.97;23.45;;;17.40;70.00;;;;;;5006166;28;20522;-67
2023/04/06 10:49:43;;;;;;;24.75;11.95;;;17.00;67.50;;;;;;5007882;28;20045;-66
2023/04/06 10:52:09;;;;;;;25.05;12.23;;;16.80;67.00;;;;;;5010322;28;20447;-66
2023/04/06 10:54:43;;;;;;;19.67;8.88;;;16.30;67.80;;;;;;5012848;28;20049;-66
2023/04/06 10:57:09;;;;;;;63.17;24.45;;;16.20;68.20;;;;;;5009912;28;20042;-66
2023/04/06 10:59:35;;;;;;;67.07;26.20;;;16.00;68.20;;;;;;5010233;28;20049;-67
2023/04/06 11:02:01;;;;;;;30.77;13.48;;;16.00;68.10;;;;;;5008647;28;20057;-67
2023/04/06 11:04:26;;;;;;;17.10;9.18;;;16.00;68.40;;;;;;5006466;28;20629;-66
2023/04/06 11:06:52;;;;;;;21.85;10.48;;;16.20;69.00;;;;;;5018887;28;20026;-66
2023/04/06 11:09:28;;;;;;;16.70;9.25;;;16.40;68.90;;;;;;5016620;28;20034;-66
2023/04/06 11:11:55;;;;;;;20.42;10.68;;;16.50;68.20;;;;;;5011687;28;20103;-66
2023/04/06 11:14:20;;;;;;;14.55;7.80;;;16.00;67.90;;;;;;5011206;28;20125;-66
2023/04/06 11:16:49;;;;;;;17.08;8.25;;;15.80;68.40;;;;;;5009249;28;20567;-66
2023/04/06 11:19:15;;;;;;;16.77;8.82;;;16.40;69.00;;;;;;5009812;28;20049;-66
2023/04/06 11:21:43;;;;;;;14.70;8.52;;;16.50;69.00;;;;;;5008562;28;20076;-66
2023/04/06 11:24:09;;;;;;;16.50;8.82;;;16.60;66.90;;;;;;4982757;28;20124;-66
2023/04/06 11:27:00;;;;;;;16.00;8.50;;;16.80;69.60;;;;;;5009503;28;20049;-66
2023/04/06 11:29:28;;;;;;;18.42;8.90;;;16.60;68.40;;;;;;5009696;28;20064;-66
2023/04/06 11:32:00;;;;;;;17.17;8.95;;;16.70;68.60;;;;;;5009486;28;20022;-66
2023/04/06 11:34:27;;;;;;;28.42;9.55;;;17.10;67.10;;;;;;5009253;28;20029;-66
2023/04/06 11:37:06;;;;;;;23.10;10.40;;;16.90;66.90;;;;;;5010082;28;20025;-66
2023/04/06 11:39:43;;;;;;;18.52;9.40;;;16.70;67.00;;;;;;5017935;28;20479;-66
2023/04/06 11:42:09;;;;;;;19.35;10.20;;;16.60;67.80;;;;;;5007017;28;20021;-67
2023/04/06 11:44:40;;;;;;;17.35;9.95;;;16.50;66.60;;;;;;5015033;28;20022;-66
2023/04/06 11:47:07;;;;;;;15.00;8.57;;;16.30;68.50;;;;;;5009999;28;20041;-67
2023/04/06 11:49:36;;;;;;;19.17;9.57;;;16.30;69.20;;;;;;5008054;28;20030;-66
2023/04/06 11:52:02;;;;;;;18.00;9.32;;;16.10;68.00;;;;;;5010605;28;20136;-66
2023/04/06 11:54:35;;;;;;;16.35;9.02;;;16.20;68.50;;;;;;5008984;28;20022;-66
2023/04/06 11:57:02;;;;;;;19.83;9.40;;;16.30;67.20;;;;;;5004129;28;20553;-66
2023/04/06 11:59:27;;;;;;;17.15;8.68;;;16.50;68.40;;;;;;5009081;28;20037;-67
2023/04/06 12:01:53;;;;;;;19.15;9.20;;;16.40;66.30;;;;;;5011429;28;20411;-66
2023/04/06 12:04:20;;;;;;;15.85;9.27;;;16.40;66.40;;;;;;5003344;28;20044;-66
2023/04/06 12:06:45;;;;;;;17.58;9.32;;;16.30;66.10;;;;;;5007645;28;20056;-66
2023/04/06 12:09:12;;;;;;;18.88;9.45;;;16.70;67.40;;;;;;5006328;28;20034;-66
2023/04/06 12:11:37;;;;;;;19.80;8.93;;;16.40;67.30;;;;;;5010045;28;20034;-67
2023/04/06 12:14:04;;;;;;;15.48;8.15;;;16.40;67.30;;;;;;5016707;28;20040;-68
2023/04/06 12:16:31;;;;;;;16.88;9.13;;;16.20;66.80;;;;;;5008263;28;20030;-67
2023/04/06 12:18:56;;;;;;;15.18;8.32;;;16.30;67.50;;;;;;5009457;28;20029;-66
2023/04/06 12:21:22;;;;;;;17.00;10.27;;;16.40;68.40;;;;;;5008258;28;20032;-67
2023/04/06 12:23:48;;;;;;;21.67;10.20;;;16.30;68.10;;;;;;5010247;28;20026;-67
2023/04/06 12:26:13;;;;;;;16.60;8.75;;;16.50;68.40;;;;;;4992165;28;20053;-68
2023/04/06 12:28:39;;;;;;;15.55;8.25;;;16.40;68.00;;;;;;5010691;28;20064;-66
2023/04/06 12:31:05;;;;;;;18.33;9.57;;;16.10;68.90;;;;;;5013847;28;20024;-67
2023/04/06 12:33:30;;;;;;;18.98;9.50;;;16.00;68.30;;;;;;5013696;28;20046;-67
2023/04/06 12:35:56;;;;;;;17.17;9.07;;;15.80;69.50;;;;;;5014421;28;20056;-66
2023/04/06 12:38:22;;;;;;;17.13;9.13;;;15.70;70.70;;;;;;5009652;28;20026;-67
2023/04/06 12:40:47;;;;;;;16.15;8.50;;;15.40;70.40;;;;;;5005837;28;20026;-67
2023/04/06 12:43:13;;;;;;;16.83;9.10;;;15.40;70.10;;;;;;5015765;28;20550;-67